createdAt,value
2023-04-04T00:00:49.534Z,2.50
2023-04-04T00:03:17.987Z,2.50
2023-04-04T00:05:46.069Z,2.49
2023-04-04T00:08:13.969Z,2.40
2023-04-04T00:10:42.291Z,2.46
2023-04-04T00:13:10.644Z,2.50
2023-04-04T00:15:38.689Z,2.49
2023-04-04T00:18:06.510Z,2.46
2023-04-04T00:20:34.599Z,2.43
2023-04-04T00:23:02.658Z,2.37
2023-04-04T00:25:30.596Z,2.37
2023-04-04T00:28:01.219Z,2.36
2023-04-04T00:30:30.484Z,2.32
2023-04-04T00:32:58.813Z,2.29
2023-04-04T00:35:26.899Z,2.27
2023-04-04T00:37:54.874Z,2.22
2023-04-04T00:40:22.783Z,2.21
2023-04-04T00:42:50.788Z,2.20
2023-04-04T00:45:18.696Z,2.17
2023-04-04T00:47:47.971Z,2.12
2023-04-04T00:50:17.985Z,2.09
2023-04-04T00:52:46.994Z,2.07
2023-04-04T00:55:15.494Z,1.98
2023-04-04T00:57:43.569Z,1.93
2023-04-04T01:00:14.648Z,1.85
2023-04-04T01:02:42.862Z,1.81
2023-04-04T01:05:11.617Z,1.76
2023-04-04T01:07:40.602Z,1.76
2023-04-04T01:10:09.464Z,1.74
2023-04-04T01:12:37.601Z,1.74
2023-04-04T01:15:06.039Z,1.72
2023-04-04T01:17:35.338Z,1.70
2023-04-04T01:20:06.725Z,1.69
2023-04-04T01:22:44.028Z,1.69
2023-04-04T01:25:13.774Z,1.65
2023-04-04T01:27:44.967Z,1.62
2023-04-04T01:30:16.872Z,1.57
2023-04-04T01:32:49.174Z,1.54
2023-04-04T01:35:33.578Z,1.50
2023-04-04T01:38:14.013Z,1.45
2023-04-04T01:40:48.782Z,1.41
2023-04-04T01:43:17.698Z,1.34
2023-04-04T01:45:47.445Z,1.23
2023-04-04T01:48:17.267Z,1.21
2023-04-04T01:50:49.171Z,1.23
2023-04-04T01:53:17.917Z,1.26
2023-04-04T01:55:45.925Z,1.28
2023-04-04T01:58:15.744Z,1.29
2023-04-04T02:00:43.804Z,1.31
2023-04-04T02:03:12.077Z,1.34
2023-04-04T02:05:41.114Z,1.39
2023-04-04T02:08:10.667Z,1.41
2023-04-04T02:10:43.536Z,1.40
2023-04-04T02:13:11.461Z,1.42
2023-04-04T02:15:39.856Z,1.41
2023-04-04T02:18:07.914Z,1.39
2023-04-04T02:20:35.959Z,1.37
2023-04-04T02:23:03.925Z,1.35
2023-04-04T02:25:31.817Z,1.32
2023-04-04T02:27:59.716Z,1.27
2023-04-04T02:30:28.299Z,1.23
2023-04-04T02:33:00.028Z,1.21
2023-04-04T02:35:28.344Z,1.22
2023-04-04T02:37:57.138Z,1.22
2023-04-04T02:40:28.115Z,1.23
2023-04-04T02:42:57.185Z,1.24
2023-04-04T02:45:25.735Z,1.25
2023-04-04T02:48:10.758Z,1.26
2023-04-04T02:50:46.538Z,1.28
2023-04-04T02:53:15.026Z,1.29
2023-04-04T02:55:43.783Z,1.27
2023-04-04T02:58:12.270Z,1.26
2023-04-04T03:00:40.863Z,1.24
2023-04-04T03:03:09.377Z,1.24
2023-04-04T03:05:41.700Z,1.19
2023-04-04T03:08:09.770Z,1.15
2023-04-04T03:10:38.409Z,1.13
2023-04-04T03:13:08.559Z,1.13
2023-04-04T03:15:36.880Z,1.13
2023-04-04T03:18:05.256Z,1.12
2023-04-04T03:20:33.799Z,1.14
2023-04-04T03:23:01.855Z,1.14
2023-04-04T03:25:29.978Z,1.16
2023-04-04T03:27:58.278Z,1.19
2023-04-04T03:30:27.493Z,1.22
2023-04-04T03:32:55.607Z,1.23
2023-04-04T03:35:23.739Z,1.21
2023-04-04T03:37:52.077Z,1.23
2023-04-04T03:40:20.053Z,1.18
2023-04-04T03:42:48.056Z,1.16
2023-04-04T03:45:19.465Z,1.13
2023-04-04T03:47:47.461Z,1.10
2023-04-04T03:50:15.886Z,1.08
2023-04-04T03:52:48.760Z,1.05
2023-04-04T03:55:17.171Z,1.04
2023-04-04T03:57:45.097Z,1.01
2023-04-04T04:00:14.749Z,0.99
2023-04-04T04:02:42.771Z,1.02
2023-04-04T04:05:11.341Z,1.05
2023-04-04T04:07:39.258Z,1.09
2023-04-04T04:10:07.532Z,1.12
2023-04-04T04:12:35.786Z,1.15
2023-04-04T04:15:04.037Z,1.17
2023-04-04T04:17:33.336Z,1.19
2023-04-04T04:20:01.614Z,1.19
2023-04-04T04:22:37.189Z,1.16
2023-04-04T04:25:05.807Z,1.14
2023-04-04T04:27:34.694Z,1.11
2023-04-04T04:30:02.789Z,1.12
2023-04-04T04:32:35.510Z,1.11
2023-04-04T04:35:03.895Z,1.10
2023-04-04T04:37:33.104Z,1.07
2023-04-04T04:40:02.309Z,1.07
2023-04-04T04:42:56.150Z,1.08
2023-04-04T04:45:24.994Z,1.09
2023-04-04T04:48:04.182Z,1.08
2023-04-04T04:50:33.509Z,1.11
2023-04-04T04:53:01.918Z,1.11
2023-04-04T04:55:30.059Z,1.14
2023-04-04T04:58:06.368Z,1.17
2023-04-04T05:00:35.377Z,1.21
2023-04-04T05:03:07.066Z,1.26
2023-04-04T05:05:43.873Z,1.29
2023-04-04T05:08:13.806Z,1.32
2023-04-04T05:10:52.885Z,1.34
2023-04-04T05:13:21.662Z,1.35
2023-04-04T05:15:50.710Z,1.34
2023-04-04T05:18:19.139Z,1.31
2023-04-04T05:20:53.192Z,1.29
2023-04-04T05:23:21.889Z,1.28
2023-04-04T05:25:51.716Z,1.28
2023-04-04T05:28:21.633Z,1.28
2023-04-04T05:30:50.299Z,1.29
2023-04-04T05:33:23.405Z,1.33
2023-04-04T05:36:13.246Z,1.35
2023-04-04T05:38:52.580Z,1.33
2023-04-04T05:41:22.290Z,1.35
2023-04-04T05:43:50.974Z,1.41
2023-04-04T05:46:23.597Z,1.49
2023-04-04T05:48:53.731Z,1.55
2023-04-04T05:51:22.264Z,1.60
2023-04-04T05:54:10.483Z,1.68
2023-04-04T05:56:39.163Z,1.73
2023-04-04T05:59:12.110Z,1.73
2023-04-04T06:01:52.071Z,1.72
2023-04-04T06:04:20.098Z,1.71
2023-04-04T06:06:48.304Z,1.67
2023-04-04T06:09:16.698Z,1.65
2023-04-04T06:11:44.660Z,1.63
2023-04-04T06:14:15.248Z,1.66
2023-04-04T06:16:44.624Z,1.71
2023-04-04T06:19:13.354Z,1.76
2023-04-04T06:21:42.458Z,1.81
2023-04-04T06:24:12.199Z,1.88
2023-04-04T06:26:40.400Z,1.90
2023-04-04T06:29:08.420Z,1.91
2023-04-04T06:31:38.832Z,1.95
2023-04-04T06:34:14.915Z,1.98
2023-04-04T06:36:55.823Z,1.99
2023-04-04T06:39:27.715Z,1.99
2023-04-04T06:41:59.250Z,1.98
2023-04-04T06:44:30.808Z,1.92
2023-04-04T06:46:59.000Z,1.90
2023-04-04T06:49:27.114Z,1.84
2023-04-04T06:51:55.328Z,1.84
2023-04-04T06:54:23.409Z,1.88
2023-04-04T06:56:52.292Z,1.90
2023-04-04T06:59:20.471Z,1.93
2023-04-04T07:01:48.641Z,1.96
2023-04-04T07:04:19.742Z,2.00
2023-04-04T07:06:47.752Z,2.03
2023-04-04T07:09:28.183Z,2.06
2023-04-04T07:11:57.742Z,2.11
2023-04-04T07:14:26.445Z,2.14
2023-04-04T07:16:55.547Z,2.07
2023-04-04T07:19:25.113Z,2.05
2023-04-04T07:21:54.553Z,2.06
2023-04-04T07:24:23.152Z,2.04
2023-04-04T07:26:51.627Z,2.05
2023-04-04T07:29:21.621Z,2.08
2023-04-04T07:31:49.790Z,2.11
2023-04-04T07:34:18.056Z,2.13
2023-04-04T07:36:46.866Z,2.16
2023-04-04T07:39:14.918Z,2.20
2023-04-04T07:41:42.992Z,2.24
2023-04-04T07:44:11.069Z,2.23
2023-04-04T07:46:39.181Z,2.17
2023-04-04T07:49:07.872Z,2.11
2023-04-04T07:51:36.342Z,2.12
2023-04-04T07:54:04.446Z,2.15
2023-04-04T07:56:32.457Z,2.18
2023-04-04T07:59:00.801Z,2.21
2023-04-04T08:01:28.984Z,2.22
2023-04-04T08:03:57.308Z,2.18
2023-04-04T08:06:25.862Z,2.12
2023-04-04T08:08:54.443Z,2.08
2023-04-04T08:11:23.252Z,1.90
2023-04-04T08:13:52.170Z,1.80
2023-04-04T08:16:21.278Z,1.71
2023-04-04T08:18:50.289Z,1.69
2023-04-04T08:21:19.396Z,1.61
2023-04-04T08:23:47.888Z,1.64
2023-04-04T08:26:16.101Z,1.72
2023-04-04T08:28:45.735Z,1.83
2023-04-04T08:31:13.991Z,1.91
2023-04-04T08:33:47.165Z,1.95
2023-04-04T08:36:16.489Z,1.86
2023-04-04T08:38:44.799Z,1.79
2023-04-04T08:41:13.484Z,1.83
2023-04-04T08:43:46.658Z,1.80
2023-04-04T08:46:15.938Z,1.81
2023-04-04T08:48:44.930Z,1.83
2023-04-04T08:51:14.911Z,1.87
2023-04-04T08:53:43.211Z,1.93
2023-04-04T08:56:12.532Z,1.98
2023-04-04T08:58:40.755Z,2.02
2023-04-04T09:01:09.012Z,2.07
2023-04-04T09:03:38.185Z,2.15
2023-04-04T09:06:06.813Z,2.22
2023-04-04T09:08:35.186Z,2.25
2023-04-04T09:11:04.618Z,2.27
2023-04-04T09:13:32.786Z,2.37
2023-04-04T09:16:01.418Z,2.40
2023-04-04T09:18:30.130Z,2.41
2023-04-04T09:20:58.393Z,2.35
2023-04-04T09:23:26.654Z,2.38
2023-04-04T09:26:03.820Z,2.43
2023-04-04T09:28:33.850Z,2.45
2023-04-04T09:31:05.005Z,2.44
2023-04-04T09:33:34.749Z,2.33
2023-04-04T09:36:08.079Z,2.31
2023-04-04T09:38:45.710Z,2.24
2023-04-04T09:41:16.321Z,2.23
2023-04-04T09:43:45.731Z,2.25
2023-04-04T09:46:16.208Z,2.16
2023-04-04T09:48:53.423Z,2.20
2023-04-04T09:51:22.214Z,2.28
2023-04-04T09:53:51.996Z,2.34
2023-04-04T09:56:20.306Z,2.42
2023-04-04T09:59:02.597Z,2.47
2023-04-04T10:01:33.628Z,2.47
2023-04-04T10:04:04.919Z,2.52
2023-04-04T10:06:33.350Z,2.59
2023-04-04T10:09:03.994Z,2.61
2023-04-04T10:11:36.290Z,2.58
2023-04-04T10:14:04.868Z,2.54
2023-04-04T10:16:38.197Z,2.53
2023-04-04T10:19:08.882Z,2.53
2023-04-04T10:21:37.409Z,2.51
2023-04-04T10:24:10.345Z,2.49
2023-04-04T10:26:40.573Z,2.53
2023-04-04T10:29:12.227Z,2.62
2023-04-04T10:31:47.239Z,2.67
2023-04-04T10:34:49.498Z,2.67
2023-04-04T10:37:28.840Z,2.69
2023-04-04T10:40:19.951Z,2.68
2023-04-04T10:42:51.837Z,2.68
2023-04-04T10:45:21.610Z,2.61
2023-04-04T10:47:51.116Z,2.60
2023-04-04T10:50:21.054Z,2.59
2023-04-04T10:52:50.455Z,2.60
2023-04-04T10:55:19.743Z,2.61
2023-04-04T10:57:52.718Z,2.60
2023-04-04T11:00:25.725Z,2.62
2023-04-04T11:03:02.509Z,2.68
2023-04-04T11:05:37.789Z,2.79
2023-04-04T11:08:09.629Z,2.89
2023-04-04T11:10:43.695Z,2.98
2023-04-04T11:13:19.032Z,3.08
2023-04-04T11:15:47.887Z,3.23
2023-04-04T11:18:30.688Z,3.23
2023-04-04T11:21:03.461Z,3.08
2023-04-04T11:23:50.377Z,2.97
2023-04-04T11:26:34.440Z,2.88
2023-04-04T11:29:04.521Z,2.87
2023-04-04T11:31:35.405Z,2.92
2023-04-04T11:34:12.559Z,2.86
2023-04-04T11:36:41.646Z,2.80
2023-04-04T11:39:15.805Z,2.80
2023-04-04T11:42:14.196Z,2.94
2023-04-04T11:45:03.285Z,3.06
2023-04-04T11:47:32.129Z,3.03
2023-04-04T11:50:07.700Z,3.05
2023-04-04T11:52:36.108Z,3.15
2023-04-04T11:55:16.927Z,3.27
2023-04-04T11:57:47.446Z,3.37
2023-04-04T12:00:37.216Z,3.42
2023-04-04T12:03:09.840Z,3.43
2023-04-04T12:05:41.360Z,3.39
2023-04-04T12:08:12.533Z,3.34
2023-04-04T12:10:41.386Z,3.26
2023-04-04T12:13:10.999Z,3.21
2023-04-04T12:15:39.414Z,3.23
2023-04-04T12:18:09.307Z,3.27
2023-04-04T12:20:42.006Z,3.28
2023-04-04T12:23:10.331Z,3.29
2023-04-04T12:25:40.532Z,3.31
2023-04-04T12:28:09.629Z,3.34
2023-04-04T12:30:39.383Z,3.36
2023-04-04T12:33:07.750Z,3.39
2023-04-04T12:35:36.452Z,3.42
2023-04-04T12:38:07.646Z,3.46
2023-04-04T12:40:39.547Z,3.52
2023-04-04T12:43:09.625Z,3.56
2023-04-04T12:45:42.720Z,3.56
2023-04-04T12:48:18.345Z,3.55
2023-04-04T12:50:55.159Z,3.54
2023-04-04T12:56:05.265Z,3.39
2023-04-04T13:01:22.149Z,3.19
2023-04-04T13:03:50.530Z,3.17
2023-04-04T13:06:20.018Z,3.18
2023-04-04T13:08:54.906Z,3.22
2023-04-04T13:11:23.914Z,3.28
2023-04-04T13:14:03.345Z,3.38
2023-04-04T13:16:35.860Z,3.50
2023-04-04T13:19:05.115Z,3.63
2023-04-04T13:21:33.505Z,3.69
2023-04-04T13:24:03.542Z,3.59
2023-04-04T13:26:31.803Z,3.52
2023-04-04T13:29:00.130Z,3.49
2023-04-04T13:31:29.218Z,3.45
2023-04-04T13:33:57.404Z,3.44
2023-04-04T13:36:26.410Z,3.36
2023-04-04T13:38:55.142Z,3.24
2023-04-04T13:41:23.306Z,3.19
2023-04-04T13:43:52.553Z,3.17
2023-04-04T13:46:20.955Z,3.10
2023-04-04T13:48:49.226Z,3.00
2023-04-04T13:51:17.436Z,2.94
2023-04-04T13:53:45.706Z,2.95
2023-04-04T13:56:18.337Z,2.98
2023-04-04T13:58:48.411Z,2.98
2023-04-04T14:01:16.922Z,2.98
2023-04-04T14:03:45.526Z,2.96
2023-04-04T14:06:13.827Z,2.98
2023-04-04T14:08:41.979Z,3.00
2023-04-04T14:11:10.074Z,3.00
2023-04-04T14:13:39.284Z,2.99
2023-04-04T14:16:12.337Z,2.97
2023-04-04T14:18:40.589Z,2.91
2023-04-04T14:21:08.913Z,2.89
2023-04-04T14:23:37.216Z,2.86
2023-04-04T14:26:05.203Z,2.86
2023-04-04T14:28:33.870Z,2.85
2023-04-04T14:31:02.211Z,2.83
2023-04-04T14:33:30.937Z,2.69
2023-04-04T14:35:59.076Z,2.53
2023-04-04T14:38:27.473Z,2.39
2023-04-04T14:40:55.656Z,2.29
2023-04-04T14:43:23.968Z,2.25
2023-04-04T14:45:52.667Z,2.22
2023-04-04T14:48:20.731Z,2.18
2023-04-04T14:50:49.002Z,2.16
2023-04-04T14:53:17.354Z,2.13
2023-04-04T14:55:45.683Z,2.12
2023-04-04T14:58:14.233Z,2.12
2023-04-04T15:00:42.593Z,2.11
2023-04-04T15:03:11.339Z,2.12
2023-04-04T15:05:39.662Z,2.04
2023-04-04T15:08:08.473Z,2.00
2023-04-04T15:10:36.425Z,1.98
2023-04-04T15:13:04.626Z,1.98
2023-04-04T15:15:32.709Z,2.00
2023-04-04T15:18:02.240Z,2.01
2023-04-04T15:20:30.799Z,1.99
2023-04-04T15:22:59.002Z,1.93
2023-04-04T15:25:27.112Z,1.87
2023-04-04T15:27:55.155Z,1.78
2023-04-04T15:30:23.808Z,1.74
2023-04-04T15:32:53.892Z,1.72
2023-04-04T15:35:23.320Z,1.73
2023-04-04T15:37:51.455Z,1.74
2023-04-04T15:40:20.422Z,1.71
2023-04-04T15:42:48.867Z,1.69
2023-04-04T15:45:17.059Z,1.62
2023-04-04T15:47:46.796Z,1.53
2023-04-04T15:50:15.217Z,1.46
2023-04-04T15:52:43.384Z,1.43
2023-04-04T15:55:14.524Z,1.39
2023-04-04T15:57:44.855Z,1.37
2023-04-04T16:00:14.570Z,1.37
2023-04-04T16:02:43.383Z,1.34
2023-04-04T16:05:12.074Z,1.32
2023-04-04T16:07:40.162Z,1.34
2023-04-04T16:10:09.227Z,1.27
2023-04-04T16:12:37.300Z,1.13
2023-04-04T16:15:07.869Z,1.15
2023-04-04T16:17:36.041Z,1.21
2023-04-04T16:20:05.676Z,1.29
2023-04-04T16:22:33.688Z,1.36
2023-04-04T16:25:01.655Z,1.38
2023-04-04T16:27:29.888Z,1.40
2023-04-04T16:29:58.159Z,1.42
2023-04-04T16:32:26.574Z,1.45
2023-04-04T16:34:54.678Z,1.47
2023-04-04T16:37:23.533Z,1.48
2023-04-04T16:39:52.246Z,1.47
2023-04-04T16:42:20.533Z,1.46
2023-04-04T16:44:48.952Z,1.43
2023-04-04T16:47:16.779Z,1.38
2023-04-04T16:49:45.059Z,1.34
2023-04-04T16:52:14.917Z,1.31
2023-04-04T16:54:43.086Z,1.26
2023-04-04T16:57:11.386Z,1.18
2023-04-04T16:59:39.513Z,1.14
2023-04-04T17:02:08.435Z,1.13
2023-04-04T17:04:41.100Z,1.12
2023-04-04T17:07:09.911Z,1.10
2023-04-04T17:09:38.723Z,1.09
2023-04-04T17:12:06.957Z,1.10
2023-04-04T17:14:35.876Z,1.14
2023-04-04T17:17:05.446Z,1.19
2023-04-04T17:19:35.350Z,1.23
2023-04-04T17:22:03.632Z,1.24
2023-04-04T17:24:31.671Z,1.24
2023-04-04T17:27:01.618Z,1.26
2023-04-04T17:29:29.765Z,1.30
2023-04-04T17:31:58.591Z,1.34
2023-04-04T17:34:27.165Z,1.32
2023-04-04T17:36:55.812Z,1.27
2023-04-04T17:39:24.371Z,1.23
2023-04-04T17:41:52.858Z,1.27
2023-04-04T17:44:22.332Z,1.29
2023-04-04T17:46:50.384Z,1.35
2023-04-04T17:49:20.653Z,1.41
2023-04-04T17:51:50.298Z,1.49
2023-04-04T17:54:18.204Z,1.50
2023-04-04T17:56:47.220Z,1.46
2023-04-04T17:59:15.900Z,1.43
2023-04-04T18:01:44.687Z,1.46
2023-04-04T18:04:13.074Z,1.49
2023-04-04T18:06:41.883Z,1.48
2023-04-04T18:09:10.731Z,1.46
2023-04-04T18:11:39.560Z,1.49
2023-04-04T18:14:08.835Z,1.50
2023-04-04T18:16:40.460Z,1.49
2023-04-04T18:19:10.207Z,1.49
2023-04-04T18:21:38.734Z,1.46
2023-04-04T18:24:11.993Z,1.46
2023-04-04T18:26:40.493Z,1.47
2023-04-04T18:29:08.893Z,1.45
2023-04-04T18:31:36.966Z,1.41
2023-04-04T18:34:05.503Z,1.39
2023-04-04T18:36:34.229Z,1.38
2023-04-04T18:39:03.325Z,1.36
2023-04-04T18:41:32.686Z,1.29
2023-04-04T18:44:00.900Z,1.16
2023-04-04T18:46:29.265Z,1.10
2023-04-04T18:48:57.370Z,1.08
2023-04-04T18:51:26.304Z,1.07
2023-04-04T18:53:54.811Z,1.11
2023-04-04T18:56:23.370Z,1.06
2023-04-04T18:58:51.930Z,1.03
2023-04-04T19:01:20.906Z,1.01
2023-04-04T19:03:51.587Z,1.01
2023-04-04T19:06:26.235Z,1.01
2023-04-04T19:08:57.866Z,1.01
2023-04-04T19:11:26.508Z,1.00
2023-04-04T19:13:54.816Z,0.97
2023-04-04T19:16:24.279Z,0.90
2023-04-04T19:18:52.292Z,0.82
2023-04-04T19:21:20.735Z,0.77
2023-04-04T19:23:48.698Z,0.78
2023-04-04T19:26:18.272Z,0.79
2023-04-04T19:28:47.032Z,0.81
2023-04-04T19:31:22.389Z,0.78
2023-04-04T19:33:55.390Z,0.76
2023-04-04T19:36:24.753Z,0.81
2023-04-04T19:38:55.989Z,0.84
2023-04-04T19:41:36.159Z,0.84
2023-04-04T19:44:06.762Z,0.83
2023-04-04T19:46:35.244Z,0.87
2023-04-04T19:49:13.663Z,0.87
2023-04-04T19:51:57.063Z,0.86
2023-04-04T19:54:31.656Z,0.83
2023-04-04T19:57:05.113Z,0.76
2023-04-04T19:59:51.412Z,0.74
2023-04-04T20:02:32.527Z,0.73
2023-04-04T20:05:01.536Z,0.74
2023-04-04T20:07:29.826Z,0.72
2023-04-04T20:09:58.087Z,0.66
2023-04-04T20:12:26.525Z,0.61
2023-04-04T20:14:59.335Z,0.58
2023-04-04T20:17:27.412Z,0.57
2023-04-04T20:19:55.307Z,0.57
2023-04-04T20:22:23.374Z,0.59
2023-04-04T20:24:51.285Z,0.62
2023-04-04T20:27:24.367Z,0.65
2023-04-04T20:29:54.438Z,0.65
2023-04-04T20:32:22.703Z,0.67
2023-04-04T20:34:50.983Z,0.67
2023-04-04T20:37:23.835Z,0.70
2023-04-04T20:39:56.270Z,0.75
2023-04-04T20:42:30.662Z,0.81
2023-04-04T20:45:26.946Z,0.86
2023-04-04T20:47:57.978Z,0.89
2023-04-04T20:50:27.498Z,0.90
2023-04-04T20:53:06.303Z,0.92
2023-04-04T20:55:35.620Z,0.94
2023-04-04T20:58:09.432Z,0.96
2023-04-04T21:00:41.015Z,0.89
2023-04-04T21:03:13.169Z,0.83
2023-04-04T21:05:41.285Z,0.76
2023-04-04T21:08:24.690Z,0.77
2023-04-04T21:11:02.412Z,0.80
2023-04-04T21:13:41.572Z,0.77
2023-04-04T21:16:12.111Z,0.74
2023-04-04T21:18:41.875Z,0.71
2023-04-04T21:21:19.864Z,0.66
2023-04-04T21:23:53.259Z,0.61
2023-04-04T21:26:37.259Z,0.59
2023-04-04T21:29:25.138Z,0.52
2023-04-04T21:31:54.838Z,0.46
2023-04-04T21:34:25.300Z,0.44
2023-04-04T21:36:56.198Z,0.40
2023-04-04T21:39:29.981Z,0.29
2023-04-04T21:42:06.945Z,0.29
2023-04-04T21:44:36.276Z,0.28
2023-04-04T21:47:04.243Z,0.29
2023-04-04T21:49:32.224Z,0.30
2023-04-04T21:52:00.189Z,0.27
2023-04-04T21:54:28.229Z,0.22
2023-04-04T21:56:56.174Z,0.19
2023-04-04T21:59:24.041Z,0.20
2023-04-04T22:01:52.102Z,0.22
2023-04-04T22:04:20.152Z,0.19
2023-04-04T22:06:48.136Z,0.22
2023-04-04T22:09:16.128Z,0.20
2023-04-04T22:11:47.166Z,0.20
2023-04-04T22:14:18.113Z,0.22
2023-04-04T22:16:46.512Z,0.28
2023-04-04T22:19:14.681Z,0.32
2023-04-04T22:21:48.090Z,0.28
2023-04-04T22:24:18.734Z,0.26
2023-04-04T22:26:47.089Z,0.28
2023-04-04T22:29:15.116Z,0.26
2023-04-04T22:31:43.085Z,0.16
2023-04-04T22:34:14.085Z,0.14
2023-04-04T22:36:43.931Z,0.14
2023-04-04T22:39:12.142Z,0.13
2023-04-04T22:41:39.965Z,0.17
2023-04-04T22:44:07.840Z,0.18
2023-04-04T22:46:35.761Z,0.23
2023-04-04T22:49:07.071Z,0.28
2023-04-04T22:51:44.188Z,0.26
2023-04-04T22:54:14.637Z,0.22
2023-04-04T22:56:42.820Z,0.25
2023-04-04T22:59:11.381Z,0.26
2023-04-04T23:01:39.767Z,0.26
2023-04-04T23:04:08.240Z,0.28
2023-04-04T23:06:36.372Z,0.31
2023-04-04T23:09:04.385Z,0.37
2023-04-04T23:11:32.434Z,0.43
2023-04-04T23:14:00.720Z,0.53
2023-04-04T23:16:29.101Z,0.59
2023-04-04T23:18:57.286Z,0.55
2023-04-04T23:21:25.324Z,0.56
2023-04-04T23:23:53.242Z,0.52
2023-04-04T23:26:21.225Z,0.46
2023-04-04T23:28:50.815Z,0.47
2023-04-04T23:31:18.772Z,0.43
2023-04-04T23:33:46.714Z,0.37
2023-04-04T23:36:16.138Z,0.32
2023-04-04T23:38:44.451Z,0.32
2023-04-04T23:41:12.862Z,0.29
2023-04-04T23:43:41.062Z,0.29
2023-04-04T23:46:09.059Z,0.31
2023-04-04T23:48:37.175Z,0.28
2023-04-04T23:51:05.992Z,0.22
2023-04-04T23:53:34.985Z,0.23
2023-04-04T23:56:03.523Z,0.22
2023-04-04T23:58:31.458Z,0.22
